< Cyclone 199209 1992 Season Cyclone 199301 >
Cyclone 199210 (JANE)
General InformationTrack Information on Google MapsDetailed Wind InformationList of All Images || ResourceGoogle EarthGE AnimationAtom FeedGeoJSON
Detalied Best Track (Time Zone = UTC)
Year Month Day Hour Lat. Long. Pressure (hPa) Wind (kt) Class Image Chart
1992 4 8 00 -7.5 97.7 995 39 3 Image --
1992 4 8 06 -8.0 97.9 993 41 3 Image --
1992 4 8 12 -8.6 98.2 990 47 3 Image --
1992 4 8 18 -9.1 98.2 986 53 4 Image --
1992 4 9 00 -9.7 98.3 984 56 4 Image --
1992 4 9 06 -10.2 98.4 982 58 4 Image --
1992 4 9 12 -10.8 98.5 980 60 4 Image --
1992 4 9 18 -11.3 98.7 976 66 5 Image --
1992 4 10 00 -11.8 99.0 970 74 5 Image --
1992 4 10 06 -12.2 99.2 966 78 5 Image --
1992 4 10 12 -12.5 99.3 964 80 5 Image --
1992 4 10 18 -12.8 99.4 962 82 5 Image --
1992 4 11 00 -13.1 99.5 960 84 5 Image --
1992 4 11 06 -13.4 99.6 960 84 5 Image --
1992 4 11 12 -13.8 99.5 960 84 5 Image --
1992 4 11 18 -14.0 99.0 958 86 5 Image --
1992 4 12 00 -14.1 98.5 956 89 5 Image --
1992 4 12 06 -14.2 97.8 954 89 5 Image --
1992 4 12 12 -14.2 96.7 952 93 5 Image --
1992 4 12 18 -14.4 94.9 950 95 5 Image --
1992 4 13 00 -14.6 93.9 948 95 5 Image --
1992 4 13 06 -14.8 92.7 942 101 5 Image --
1992 4 13 12 -15.0 91.5 935 109 5 Image --
1992 4 13 18 -15.0 90.4 930 113 5 Image --
1992 4 14 00 -14.9 89.5 925 117 5 Image --
1992 4 14 06 -14.8 88.4 920 123 5 Image --
1992 4 14 12 -14.7 87.4 915 126 5 Image --
1992 4 14 18 -14.5 86.4 915 126 5 Image --
1992 4 15 00 -14.6 85.4 915 126 5 Image --
1992 4 15 06 -14.8 84.4 915 126 5 Image --
1992 4 15 12 -14.8 83.7 920 123 5 Image --
1992 4 15 18 -14.8 83.2 930 113 5 Image --
1992 4 16 00 -14.9 82.8 955 89 5 Image --
1992 4 16 06 -15.1 82.5 970 74 5 Image --
1992 4 16 12 -15.7 82.2 985 54 4 Image --
1992 4 16 18 -16.3 82.2 990 47 3 Image --
1992 4 17 00 -17.0 82.6 995 39 3 Image --
1992 4 17 06 -17.7 83.1 998 35 3 Image --
< Cyclone 199209 1992 Season Cyclone 199301 >

Help